createdAt,value
2023-05-01T00:00:51.899Z,2.15
2023-05-01T00:01:51.895Z,2.14
2023-05-01T00:02:51.868Z,2.14
2023-05-01T00:03:52.019Z,2.12
2023-05-01T00:04:51.953Z,2.09
2023-05-01T00:05:51.769Z,2.06
2023-05-01T00:06:51.893Z,2.04
2023-05-01T00:07:51.821Z,2.03
2023-05-01T00:08:51.741Z,2.04
2023-05-01T00:09:51.724Z,2.08
2023-05-01T00:10:51.698Z,2.13
2023-05-01T00:11:51.712Z,2.17
2023-05-01T00:12:51.682Z,2.20
2023-05-01T00:13:51.668Z,2.21
2023-05-01T00:14:51.653Z,2.21
2023-05-01T00:15:51.752Z,2.22
2023-05-01T00:16:51.648Z,2.20
2023-05-01T00:17:51.652Z,2.17
2023-05-01T00:18:51.613Z,2.12
2023-05-01T00:19:51.618Z,2.06
2023-05-01T00:20:51.701Z,2.00
2023-05-01T00:21:51.587Z,1.94
2023-05-01T00:22:51.539Z,1.87
2023-05-01T00:23:51.510Z,1.81
2023-05-01T00:24:51.494Z,1.77
2023-05-01T00:25:51.472Z,1.76
2023-05-01T00:26:51.491Z,1.75
2023-05-01T00:27:51.475Z,1.75
2023-05-01T00:28:51.494Z,1.72
2023-05-01T00:29:51.470Z,1.69
2023-05-01T00:30:51.483Z,1.67
2023-05-01T00:31:51.462Z,1.66
2023-05-01T00:32:51.536Z,1.63
2023-05-01T00:33:51.409Z,1.59
2023-05-01T00:34:51.617Z,1.56
2023-05-01T00:35:51.351Z,1.54
2023-05-01T00:36:51.359Z,1.56
2023-05-01T00:37:51.326Z,1.59
2023-05-01T00:38:51.309Z,1.61
2023-05-01T00:39:51.313Z,1.61
2023-05-01T00:40:51.276Z,1.59
2023-05-01T00:41:51.286Z,1.60
2023-05-01T00:42:51.340Z,1.63
2023-05-01T00:43:51.270Z,1.68
2023-05-01T00:44:51.268Z,1.72
2023-05-01T00:45:51.432Z,1.75
2023-05-01T00:46:51.252Z,1.78
2023-05-01T00:47:51.214Z,1.81
2023-05-01T00:48:51.188Z,1.83
2023-05-01T00:49:51.189Z,1.84
2023-05-01T00:50:51.148Z,1.86
2023-05-01T00:51:51.148Z,1.87
2023-05-01T00:52:51.165Z,1.88
2023-05-01T00:53:51.115Z,1.85
2023-05-01T00:54:51.171Z,1.82
2023-05-01T00:55:51.107Z,1.80
2023-05-01T00:56:51.118Z,1.79
2023-05-01T00:57:51.103Z,1.75
2023-05-01T00:58:51.049Z,1.69
2023-05-01T00:59:51.055Z,1.64
2023-05-01T01:00:51.121Z,1.61
2023-05-01T01:01:51.023Z,1.60
2023-05-01T01:02:51.091Z,1.59
2023-05-01T01:03:51.115Z,1.56
2023-05-01T01:04:51.021Z,1.54
2023-05-01T01:05:50.961Z,1.56
2023-05-01T01:06:51.000Z,1.59
2023-05-01T01:07:51.010Z,1.60
2023-05-01T01:08:50.942Z,1.61
2023-05-01T01:09:50.941Z,1.61
2023-05-01T01:10:50.919Z,1.60
2023-05-01T01:11:50.947Z,1.60
2023-05-01T01:12:50.868Z,1.61
2023-05-01T01:13:50.943Z,1.62
2023-05-01T01:14:50.858Z,1.65
2023-05-01T01:15:50.869Z,1.68
2023-05-01T01:16:50.982Z,1.70
2023-05-01T01:17:50.884Z,1.69
2023-05-01T01:18:50.799Z,1.65
2023-05-01T01:19:50.759Z,1.59
2023-05-01T01:20:50.768Z,1.54
2023-05-01T01:21:50.781Z,1.51
2023-05-01T01:22:50.798Z,1.49
2023-05-01T01:23:50.727Z,1.46
2023-05-01T01:24:50.752Z,1.42
2023-05-01T01:25:50.688Z,1.39
2023-05-01T01:26:50.667Z,1.40
2023-05-01T01:27:50.644Z,1.42
2023-05-01T01:28:50.727Z,1.44
2023-05-01T01:29:50.632Z,1.45
2023-05-01T01:30:50.682Z,1.46
2023-05-01T01:31:50.619Z,1.46
2023-05-01T01:32:50.657Z,1.46
2023-05-01T01:33:50.584Z,1.45
2023-05-01T01:34:50.612Z,1.45
2023-05-01T01:35:50.571Z,1.45
2023-05-01T01:36:50.610Z,1.44
2023-05-01T01:37:50.619Z,1.43
2023-05-01T01:38:50.513Z,1.37
2023-05-01T01:39:50.528Z,1.30
2023-05-01T01:40:50.559Z,1.26
2023-05-01T01:41:50.492Z,1.23
2023-05-01T01:42:50.476Z,1.19
2023-05-01T01:43:50.452Z,1.13
2023-05-01T01:44:50.437Z,1.11
2023-05-01T01:45:50.431Z,1.11
2023-05-01T01:46:50.482Z,1.13
2023-05-01T01:47:50.485Z,1.14
2023-05-01T01:48:50.405Z,1.15
2023-05-01T01:49:50.388Z,1.17
2023-05-01T01:50:50.368Z,1.20
2023-05-01T01:51:50.368Z,1.24
2023-05-01T01:52:50.347Z,1.29
2023-05-01T01:53:50.344Z,1.35
2023-05-01T01:54:50.359Z,1.40
2023-05-01T01:55:50.347Z,1.44
2023-05-01T01:56:50.368Z,1.48
2023-05-01T01:57:50.256Z,1.50
2023-05-01T01:58:50.262Z,1.52
2023-05-01T01:59:50.261Z,1.52
2023-05-01T02:00:50.234Z,1.50
2023-05-01T02:01:50.285Z,1.46
2023-05-01T02:02:50.264Z,1.39
2023-05-01T02:03:50.236Z,1.31
2023-05-01T02:04:50.174Z,1.24
2023-05-01T02:05:50.154Z,1.21
2023-05-01T02:06:50.364Z,1.19
2023-05-01T02:07:50.130Z,1.15
2023-05-01T02:08:50.143Z,1.11
2023-05-01T02:09:50.098Z,1.08
2023-05-01T02:10:50.114Z,1.05
2023-05-01T02:11:50.149Z,1.04
2023-05-01T02:12:50.139Z,1.04
2023-05-01T02:13:50.108Z,1.05
2023-05-01T02:14:50.155Z,1.06
2023-05-01T02:15:50.070Z,1.05
2023-05-01T02:16:50.025Z,1.05
2023-05-01T02:17:50.070Z,1.04
2023-05-01T02:18:49.980Z,1.01
2023-05-01T02:19:50.008Z,0.99
2023-05-01T02:20:49.981Z,0.97
2023-05-01T02:21:49.996Z,0.94
2023-05-01T02:22:50.004Z,0.93
2023-05-01T02:23:49.969Z,0.93
2023-05-01T02:24:49.923Z,0.98
2023-05-01T02:25:49.920Z,1.07
2023-05-01T02:26:49.969Z,1.18
2023-05-01T02:27:49.864Z,1.28
2023-05-01T02:28:49.908Z,1.35
2023-05-01T02:29:49.847Z,1.37
2023-05-01T02:30:49.861Z,1.35
2023-05-01T02:31:49.854Z,1.34
2023-05-01T02:32:49.870Z,1.33
2023-05-01T02:33:49.854Z,1.31
2023-05-01T02:34:49.813Z,1.29
2023-05-01T02:35:49.776Z,1.26
2023-05-01T02:36:49.792Z,1.23
2023-05-01T02:37:49.758Z,1.17
2023-05-01T02:38:49.774Z,1.10
2023-05-01T02:39:49.724Z,1.05
2023-05-01T02:40:49.723Z,1.02
2023-05-01T02:41:49.690Z,0.99
2023-05-01T02:42:49.716Z,0.98
2023-05-01T02:43:49.682Z,1.00
2023-05-01T02:44:49.741Z,1.02
2023-05-01T02:45:49.755Z,1.02
2023-05-01T02:46:49.696Z,1.00
2023-05-01T02:47:49.696Z,0.98
2023-05-01T02:48:49.634Z,0.94
2023-05-01T02:49:49.655Z,0.92
2023-05-01T02:50:49.612Z,0.90
2023-05-01T02:51:49.588Z,0.91
2023-05-01T02:52:49.554Z,0.95
2023-05-01T02:53:49.565Z,1.00
2023-05-01T02:54:49.546Z,1.04
2023-05-01T02:55:49.525Z,1.05
2023-05-01T02:56:49.489Z,1.05
2023-05-01T02:57:49.543Z,1.04
2023-05-01T02:58:49.478Z,1.01
2023-05-01T02:59:49.519Z,0.98
2023-05-01T03:00:49.639Z,0.97
2023-05-01T03:01:49.501Z,0.96
2023-05-01T03:02:49.450Z,0.95
2023-05-01T03:03:49.451Z,0.93
2023-05-01T03:04:49.404Z,0.91
2023-05-01T03:05:49.407Z,0.90
2023-05-01T03:06:49.469Z,0.89
2023-05-01T03:07:49.367Z,0.87
2023-05-01T03:08:49.352Z,0.87
2023-05-01T03:09:49.341Z,0.85
2023-05-01T03:10:49.361Z,0.83
2023-05-01T03:11:49.295Z,0.83
2023-05-01T03:12:49.306Z,0.84
2023-05-01T03:13:49.310Z,0.90
2023-05-01T03:14:49.264Z,0.98
2023-05-01T03:15:49.267Z,1.04
2023-05-01T03:16:49.260Z,1.08
2023-05-01T03:17:49.227Z,1.11
2023-05-01T03:18:49.236Z,1.12
2023-05-01T03:19:49.225Z,1.14
2023-05-01T03:20:49.231Z,1.13
2023-05-01T03:21:49.193Z,1.16
2023-05-01T03:22:49.258Z,1.23
2023-05-01T03:23:49.189Z,1.32
2023-05-01T03:24:49.173Z,1.41
2023-05-01T03:25:49.190Z,1.50
2023-05-01T03:26:49.193Z,1.59
2023-05-01T03:27:49.075Z,1.66
2023-05-01T03:28:49.121Z,1.72
2023-05-01T03:29:49.112Z,1.75
2023-05-01T03:30:49.084Z,1.76
2023-05-01T03:31:49.108Z,1.76
2023-05-01T03:32:49.185Z,1.73
2023-05-01T03:33:49.023Z,1.69
2023-05-01T03:34:49.019Z,1.65
2023-05-01T03:35:49.195Z,1.61
2023-05-01T03:36:48.988Z,1.56
2023-05-01T03:37:48.987Z,1.50
2023-05-01T03:38:48.989Z,1.46
2023-05-01T03:39:48.975Z,1.43
2023-05-01T03:40:48.953Z,1.41
2023-05-01T03:41:48.969Z,1.38
2023-05-01T03:42:48.913Z,1.34
2023-05-01T03:43:49.079Z,1.29
2023-05-01T03:44:48.979Z,1.25
2023-05-01T03:45:49.043Z,1.23
2023-05-01T03:46:48.837Z,1.21
2023-05-01T03:47:48.882Z,1.21
2023-05-01T03:48:48.906Z,1.19
2023-05-01T03:49:48.840Z,1.17
2023-05-01T03:50:48.825Z,1.18
2023-05-01T03:51:48.793Z,1.20
2023-05-01T03:52:48.826Z,1.22
2023-05-01T03:53:48.742Z,1.24
2023-05-01T03:54:48.765Z,1.26
2023-05-01T03:55:48.726Z,1.28
2023-05-01T03:56:48.751Z,1.30
2023-05-01T03:57:48.728Z,1.31
2023-05-01T03:58:48.693Z,1.32
2023-05-01T03:59:48.676Z,1.34
2023-05-01T04:00:48.703Z,1.35
2023-05-01T04:01:48.679Z,1.37
2023-05-01T04:02:48.919Z,1.36
2023-05-01T04:03:48.748Z,1.34
2023-05-01T04:04:48.626Z,1.33
2023-05-01T04:05:48.581Z,1.32
2023-05-01T04:06:48.701Z,1.32
2023-05-01T04:07:48.545Z,1.31
2023-05-01T04:08:48.553Z,1.31
2023-05-01T04:09:48.589Z,1.30
2023-05-01T04:10:48.526Z,1.30
2023-05-01T04:11:48.514Z,1.31
2023-05-01T04:12:48.531Z,1.32
2023-05-01T04:13:48.538Z,1.32
2023-05-01T04:14:48.490Z,1.32
2023-05-01T04:15:48.503Z,1.32
2023-05-01T04:16:48.456Z,1.32
2023-05-01T04:17:48.478Z,1.33
2023-05-01T04:18:48.427Z,1.34
2023-05-01T04:19:48.445Z,1.35
2023-05-01T04:20:48.416Z,1.36
2023-05-01T04:21:48.389Z,1.41
2023-05-01T04:22:48.384Z,1.49
2023-05-01T04:23:48.353Z,1.57
2023-05-01T04:24:48.336Z,1.63
2023-05-01T04:25:48.390Z,1.71
2023-05-01T04:26:48.334Z,1.81
2023-05-01T04:27:48.349Z,1.92
2023-05-01T04:28:48.288Z,2.04
2023-05-01T04:29:48.314Z,2.14
2023-05-01T04:30:48.434Z,2.23
2023-05-01T04:31:48.445Z,2.30
2023-05-01T04:32:48.329Z,2.38
2023-05-01T04:33:48.316Z,2.45
2023-05-01T04:34:48.273Z,2.50
2023-05-01T04:35:48.295Z,2.53
2023-05-01T04:36:48.321Z,2.57
2023-05-01T04:37:48.296Z,2.62
2023-05-01T04:38:48.222Z,2.70
2023-05-01T04:39:48.276Z,2.77
2023-05-01T04:40:48.271Z,2.84
2023-05-01T04:41:48.237Z,2.90
2023-05-01T04:42:48.266Z,2.96
2023-05-01T04:43:48.265Z,3.01
2023-05-01T04:44:48.231Z,3.05
2023-05-01T04:45:48.278Z,3.11
2023-05-01T04:46:48.233Z,3.14
2023-05-01T04:47:48.293Z,3.16
2023-05-01T04:48:48.243Z,3.18
2023-05-01T04:49:48.127Z,3.19
2023-05-01T04:50:48.224Z,3.21
2023-05-01T04:51:48.198Z,3.25
2023-05-01T04:52:48.090Z,3.28
2023-05-01T04:53:48.302Z,3.30
2023-05-01T04:54:48.092Z,3.32
2023-05-01T04:55:48.260Z,3.33
2023-05-01T04:56:48.242Z,3.34
2023-05-01T04:57:48.132Z,3.35
2023-05-01T04:58:48.172Z,3.35
2023-05-01T04:59:48.018Z,3.36
2023-05-01T05:00:48.078Z,3.37
2023-05-01T05:01:48.246Z,3.39
2023-05-01T05:02:48.161Z,3.47
2023-05-01T05:03:50.078Z,3.57
2023-05-01T05:04:47.985Z,3.64
2023-05-01T05:05:47.956Z,3.69
2023-05-01T05:06:48.031Z,3.72
2023-05-01T05:07:48.128Z,3.76
2023-05-01T05:08:47.833Z,3.81
2023-05-01T05:09:47.932Z,3.86
2023-05-01T05:10:48.004Z,3.90
2023-05-01T05:11:47.760Z,3.95
2023-05-01T05:12:47.790Z,4.00
2023-05-01T05:13:47.772Z,4.06
2023-05-01T05:14:47.764Z,4.14
2023-05-01T05:15:47.857Z,4.25
2023-05-01T05:16:47.900Z,4.37
2023-05-01T05:17:47.801Z,4.48
2023-05-01T05:18:47.657Z,4.57
2023-05-01T05:19:47.769Z,4.66
2023-05-01T05:20:47.620Z,4.72
2023-05-01T05:21:47.580Z,4.78
2023-05-01T05:22:47.566Z,4.83
2023-05-01T05:23:47.559Z,4.88
2023-05-01T05:24:47.556Z,4.95
2023-05-01T05:25:47.535Z,5.01
2023-05-01T05:26:47.504Z,5.06
2023-05-01T05:27:47.552Z,5.10
2023-05-01T05:28:47.477Z,5.13
2023-05-01T05:29:47.602Z,5.19
2023-05-01T05:30:47.477Z,5.26
2023-05-01T05:31:47.495Z,5.31
2023-05-01T05:32:47.463Z,5.34
2023-05-01T05:33:47.488Z,5.37
2023-05-01T05:34:47.436Z,5.41
2023-05-01T05:35:47.421Z,5.48
2023-05-01T05:36:47.398Z,5.55
2023-05-01T05:37:47.387Z,5.61
2023-05-01T05:38:47.362Z,5.66
2023-05-01T05:39:47.346Z,5.72
2023-05-01T05:40:47.342Z,5.78
2023-05-01T05:41:47.355Z,5.82
2023-05-01T05:42:47.322Z,5.84
2023-05-01T05:43:47.317Z,5.85
2023-05-01T05:44:47.331Z,5.87
2023-05-01T05:45:47.441Z,5.89
2023-05-01T05:46:47.303Z,5.95
2023-05-01T05:47:47.286Z,6.01
2023-05-01T05:48:47.305Z,6.07
2023-05-01T05:49:47.288Z,6.12
2023-05-01T05:50:47.247Z,6.19
2023-05-01T05:51:47.246Z,6.27
2023-05-01T05:52:47.170Z,6.35
2023-05-01T05:53:47.163Z,6.40
2023-05-01T05:54:48.167Z,6.45
2023-05-01T05:55:47.207Z,6.53
2023-05-01T05:56:47.151Z,6.62
2023-05-01T05:57:47.132Z,6.69
2023-05-01T05:58:47.109Z,6.75
2023-05-01T05:59:47.095Z,6.80
2023-05-01T06:00:47.089Z,6.83
2023-05-01T06:01:47.096Z,6.87
2023-05-01T06:02:47.220Z,6.92
2023-05-01T06:03:47.133Z,6.96
2023-05-01T06:04:47.003Z,7.01
2023-05-01T06:05:47.015Z,7.04
2023-05-01T06:06:47.018Z,7.07
2023-05-01T06:07:46.982Z,7.10
2023-05-01T06:08:46.995Z,7.17
2023-05-01T06:09:46.979Z,7.25
2023-05-01T06:10:46.939Z,7.32
2023-05-01T06:11:46.923Z,7.37
2023-05-01T06:12:55.708Z,7.42
2023-05-01T06:13:46.959Z,7.46
2023-05-01T06:14:46.928Z,7.50
2023-05-01T06:15:46.950Z,7.55
2023-05-01T06:16:46.854Z,7.59
2023-05-01T06:17:46.877Z,7.63
2023-05-01T06:18:46.937Z,7.67
2023-05-01T06:19:46.848Z,7.74
2023-05-01T06:20:46.861Z,7.82
2023-05-01T06:21:46.845Z,7.91
2023-05-01T06:22:46.821Z,7.98
2023-05-01T06:23:46.767Z,8.03
2023-05-01T06:24:46.766Z,8.06
2023-05-01T06:25:46.758Z,8.07
2023-05-01T06:26:46.742Z,8.10
2023-05-01T06:27:46.729Z,8.15
2023-05-01T06:28:46.699Z,8.23
2023-05-01T06:29:46.723Z,8.30
2023-05-01T06:30:46.710Z,8.33
2023-05-01T06:31:46.754Z,8.37
2023-05-01T06:32:46.765Z,8.43
2023-05-01T06:33:46.670Z,8.52
2023-05-01T06:34:46.650Z,8.62
2023-05-01T06:35:46.670Z,8.71
2023-05-01T06:36:46.600Z,8.76
2023-05-01T06:37:46.591Z,8.81
2023-05-01T06:38:46.584Z,8.87
2023-05-01T06:39:46.590Z,8.95
2023-05-01T06:40:46.558Z,9.03
2023-05-01T06:41:46.629Z,9.08
2023-05-01T06:42:46.512Z,9.13
2023-05-01T06:43:46.504Z,9.18
2023-05-01T06:44:46.479Z,9.23
2023-05-01T06:45:46.494Z,9.23
2023-05-01T06:46:46.520Z,9.25
2023-05-01T06:47:46.469Z,9.31
2023-05-01T06:48:46.459Z,9.39
2023-05-01T06:49:46.410Z,9.47
2023-05-01T06:50:46.407Z,9.52
2023-05-01T06:51:46.424Z,9.53
2023-05-01T06:52:46.375Z,9.54
2023-05-01T06:53:46.387Z,9.59
2023-05-01T06:54:46.349Z,9.65
2023-05-01T06:55:46.353Z,9.70
2023-05-01T06:56:46.378Z,9.72
2023-05-01T06:57:46.358Z,9.76
2023-05-01T06:58:46.307Z,9.83
2023-05-01T06:59:46.300Z,9.89
2023-05-01T07:00:46.325Z,9.95
2023-05-01T07:01:46.324Z,9.97
2023-05-01T07:02:46.539Z,10.00
2023-05-01T07:03:46.261Z,10.07
2023-05-01T07:04:46.231Z,10.16
2023-05-01T07:05:46.231Z,10.21
2023-05-01T07:06:46.299Z,10.28
2023-05-01T07:07:58.071Z,10.37
2023-05-01T07:08:46.188Z,10.44
2023-05-01T07:09:46.253Z,10.45
2023-05-01T07:10:46.140Z,10.43
2023-05-01T07:11:46.135Z,10.44
2023-05-01T07:12:46.124Z,10.45
2023-05-01T07:13:46.128Z,10.44
2023-05-01T07:14:46.114Z,10.45
2023-05-01T07:15:46.100Z,10.50
2023-05-01T07:16:46.078Z,10.58
2023-05-01T07:17:46.121Z,10.64
2023-05-01T07:18:46.023Z,10.70
2023-05-01T07:19:46.040Z,10.76
2023-05-01T07:20:46.031Z,10.79
2023-05-01T07:21:46.030Z,10.84
2023-05-01T07:22:45.999Z,10.97
2023-05-01T07:23:46.021Z,11.16
2023-05-01T07:24:46.052Z,11.35
2023-05-01T07:25:45.971Z,11.52
2023-05-01T07:26:45.964Z,11.63
2023-05-01T07:27:45.935Z,11.63
2023-05-01T07:28:46.026Z,11.53
2023-05-01T07:29:45.996Z,11.39
2023-05-01T07:30:46.084Z,11.40
2023-05-01T07:31:45.896Z,11.50
2023-05-01T07:32:45.868Z,11.60
2023-05-01T07:33:45.893Z,11.70
2023-05-01T07:34:46.323Z,11.78
2023-05-01T07:35:45.891Z,11.83
2023-05-01T07:36:45.868Z,11.93
2023-05-01T07:37:45.821Z,11.99
2023-05-01T07:38:45.786Z,11.94
2023-05-01T07:39:45.830Z,11.87
2023-05-01T07:40:45.887Z,11.82
2023-05-01T07:41:45.810Z,11.83
2023-05-01T07:42:45.818Z,11.91
2023-05-01T07:43:45.684Z,12.03
2023-05-01T07:44:45.692Z,12.09
2023-05-01T07:45:45.975Z,12.10
2023-05-01T07:46:52.266Z,12.11
2023-05-01T07:47:45.860Z,12.11
2023-05-01T07:48:45.647Z,12.10
2023-05-01T07:49:45.719Z,12.13
2023-05-01T07:50:46.033Z,12.22
2023-05-01T07:51:45.623Z,12.37
2023-05-01T07:52:45.619Z,12.62
2023-05-01T07:53:45.568Z,12.88
2023-05-01T07:54:47.368Z,12.97
2023-05-01T07:55:46.017Z,12.95
2023-05-01T07:56:46.356Z,12.94
2023-05-01T07:57:45.506Z,12.92
2023-05-01T07:58:45.623Z,12.93
2023-05-01T07:59:45.499Z,12.91
2023-05-01T08:00:45.475Z,12.86
2023-05-01T08:01:45.447Z,12.82
2023-05-01T08:02:45.534Z,12.81
2023-05-01T08:03:46.530Z,12.84
2023-05-01T08:04:45.467Z,12.85
2023-05-01T08:05:45.381Z,12.86
2023-05-01T08:06:45.439Z,12.89
2023-05-01T08:07:45.378Z,12.97
2023-05-01T08:08:45.363Z,13.08
2023-05-01T08:09:45.359Z,13.14
2023-05-01T08:10:45.315Z,13.14
2023-05-01T08:11:45.770Z,13.20
2023-05-01T08:12:45.325Z,13.24
2023-05-01T08:13:45.322Z,13.26
2023-05-01T08:14:45.277Z,13.35
2023-05-01T08:15:45.312Z,13.37
2023-05-01T08:16:45.919Z,13.26
2023-05-01T08:17:45.281Z,13.19
2023-05-01T08:18:45.233Z,13.22
2023-05-01T08:19:45.208Z,13.36
2023-05-01T08:20:45.203Z,13.59
2023-05-01T08:21:45.190Z,13.79
2023-05-01T08:22:45.250Z,13.84
2023-05-01T08:23:45.478Z,13.86
2023-05-01T08:24:45.185Z,13.94
2023-05-01T08:25:45.120Z,14.04
2023-05-01T08:26:45.117Z,14.14
2023-05-01T08:27:45.122Z,14.18
2023-05-01T08:28:45.103Z,14.14
2023-05-01T08:29:45.184Z,14.21
2023-05-01T08:30:45.106Z,14.47
2023-05-01T08:31:45.147Z,14.80
2023-05-01T08:32:45.090Z,14.99
2023-05-01T08:33:45.045Z,15.08
2023-05-01T08:34:45.032Z,15.16
2023-05-01T08:35:45.037Z,15.27
2023-05-01T08:36:45.063Z,15.34
2023-05-01T08:37:45.165Z,15.31
2023-05-01T08:38:45.011Z,15.31
2023-05-01T08:39:45.859Z,15.45
2023-05-01T08:40:45.037Z,15.65
2023-05-01T08:41:44.989Z,15.72
2023-05-01T08:42:44.970Z,15.74
2023-05-01T08:43:44.926Z,15.85
2023-05-01T08:44:44.964Z,15.78
2023-05-01T08:45:44.915Z,15.66
2023-05-01T08:46:44.892Z,15.70
2023-05-01T08:47:44.901Z,15.68
2023-05-01T08:48:44.920Z,15.67
2023-05-01T08:49:44.824Z,15.80
2023-05-01T08:50:44.846Z,15.97
2023-05-01T08:51:44.790Z,16.13
2023-05-01T08:52:44.811Z,16.32
2023-05-01T08:53:44.890Z,16.55
2023-05-01T08:54:44.821Z,16.66
2023-05-01T08:55:44.753Z,16.47
2023-05-01T08:56:44.749Z,16.08
2023-05-01T08:57:44.851Z,15.87
2023-05-01T08:58:44.706Z,15.87
2023-05-01T08:59:44.745Z,15.98
2023-05-01T09:00:45.493Z,16.11
2023-05-01T09:01:47.437Z,16.15
2023-05-01T09:02:44.701Z,16.02
2023-05-01T09:03:44.711Z,15.96
2023-05-01T09:04:44.620Z,16.11
2023-05-01T09:05:44.614Z,16.42
2023-05-01T09:06:44.667Z,16.82
2023-05-01T09:07:44.639Z,16.94
2023-05-01T09:08:44.572Z,16.78
2023-05-01T09:09:44.693Z,16.72
2023-05-01T09:10:44.532Z,16.74
2023-05-01T09:11:44.574Z,16.62
2023-05-01T09:12:44.508Z,16.34
2023-05-01T09:13:44.487Z,16.20
2023-05-01T09:14:44.507Z,16.28
2023-05-01T09:15:44.523Z,16.51
2023-05-01T09:16:44.578Z,16.81
2023-05-01T09:17:44.504Z,16.92
2023-05-01T09:18:44.438Z,16.99
2023-05-01T09:19:44.452Z,17.00
2023-05-01T09:20:44.431Z,16.81
2023-05-01T09:21:44.479Z,16.64
2023-05-01T09:22:44.468Z,16.54
2023-05-01T09:23:44.428Z,16.49
2023-05-01T09:24:44.560Z,16.58
2023-05-01T09:25:44.418Z,16.84
2023-05-01T09:26:44.449Z,17.05
2023-05-01T09:27:44.489Z,17.00
2023-05-01T09:28:44.341Z,17.10
2023-05-01T09:29:44.413Z,17.47
2023-05-01T09:30:44.302Z,17.57
2023-05-01T09:31:44.316Z,17.45
2023-05-01T09:32:44.446Z,17.52
2023-05-01T09:33:44.302Z,17.67
2023-05-01T09:34:44.283Z,17.65
2023-05-01T09:35:44.266Z,17.75
2023-05-01T09:36:44.420Z,17.95
2023-05-01T09:37:44.869Z,17.88
2023-05-01T09:38:44.200Z,17.39
2023-05-01T09:39:44.221Z,16.95
2023-05-01T09:40:44.686Z,16.67
2023-05-01T09:41:44.137Z,16.48
2023-05-01T09:42:44.614Z,16.59
2023-05-01T09:43:44.229Z,16.92
2023-05-01T09:44:44.280Z,17.24
2023-05-01T09:45:44.171Z,17.34
2023-05-01T09:46:44.219Z,17.33
2023-05-01T09:47:44.205Z,17.39
2023-05-01T09:48:44.121Z,17.53
2023-05-01T09:49:44.273Z,17.63
2023-05-01T09:50:44.072Z,17.71
2023-05-01T09:51:44.106Z,17.66
2023-05-01T09:52:44.039Z,17.53
2023-05-01T09:53:44.034Z,17.30
2023-05-01T09:54:44.903Z,17.13
2023-05-01T09:55:44.239Z,16.96
2023-05-01T09:56:44.164Z,16.80
2023-05-01T09:57:44.002Z,16.89
2023-05-01T09:58:44.065Z,17.13
2023-05-01T09:59:43.983Z,17.34
2023-05-01T10:00:43.944Z,17.44
2023-05-01T10:01:44.003Z,17.44
2023-05-01T10:02:44.159Z,17.57
2023-05-01T10:03:44.019Z,17.68
2023-05-01T10:04:43.951Z,17.81
2023-05-01T10:05:43.886Z,18.15
2023-05-01T10:06:44.051Z,18.40
2023-05-01T10:07:43.942Z,18.34
2023-05-01T10:08:44.151Z,18.17
2023-05-01T10:09:44.101Z,18.11
2023-05-01T10:10:44.040Z,17.99
2023-05-01T10:11:44.236Z,17.84
2023-05-01T10:12:43.846Z,17.89
2023-05-01T10:13:44.354Z,17.97
2023-05-01T10:14:43.997Z,18.06
2023-05-01T10:15:43.850Z,18.16
2023-05-01T10:16:43.846Z,18.15
2023-05-01T10:17:43.817Z,18.06
2023-05-01T10:18:43.720Z,18.08
2023-05-01T10:19:43.833Z,18.13
2023-05-01T10:20:43.730Z,18.00
2023-05-01T10:21:43.730Z,17.73
2023-05-01T10:22:43.899Z,17.60
2023-05-01T10:23:43.696Z,17.69
2023-05-01T10:24:43.795Z,17.80
2023-05-01T10:25:43.810Z,17.87
2023-05-01T10:26:43.646Z,18.06
2023-05-01T10:27:43.612Z,18.40
2023-05-01T10:28:43.566Z,18.76
2023-05-01T10:29:43.734Z,19.00
2023-05-01T10:30:44.440Z,19.15
2023-05-01T10:31:43.756Z,19.30
2023-05-01T10:32:44.295Z,19.44
2023-05-01T10:33:43.572Z,19.28
2023-05-01T10:34:43.442Z,19.08
2023-05-01T10:35:43.499Z,18.91
2023-05-01T10:36:43.446Z,18.72
2023-05-01T10:37:43.502Z,18.55
2023-05-01T10:38:43.433Z,18.59
2023-05-01T10:39:43.413Z,18.64
2023-05-01T10:40:43.545Z,18.66
2023-05-01T10:41:43.445Z,18.91
2023-05-01T10:42:43.439Z,19.02
2023-05-01T10:43:43.598Z,18.86
2023-05-01T10:44:43.445Z,18.85
2023-05-01T10:45:43.364Z,18.89
2023-05-01T10:46:43.354Z,18.95
2023-05-01T10:47:43.353Z,18.96
2023-05-01T10:48:43.287Z,18.72
2023-05-01T10:49:43.304Z,18.47
2023-05-01T10:50:43.257Z,18.54
2023-05-01T10:51:43.250Z,18.69
2023-05-01T10:52:43.239Z,18.75
2023-05-01T10:53:43.213Z,18.96
2023-05-01T10:54:43.212Z,19.23
2023-05-01T10:55:43.327Z,19.31
2023-05-01T10:56:43.330Z,19.27
2023-05-01T10:57:43.220Z,19.25
2023-05-01T10:58:43.290Z,19.28
2023-05-01T10:59:43.298Z,19.23
2023-05-01T11:00:43.138Z,19.26
2023-05-01T11:01:43.254Z,19.50
2023-05-01T11:02:43.116Z,19.43
2023-05-01T11:03:43.110Z,19.06
2023-05-01T11:04:43.141Z,18.78
2023-05-01T11:05:43.295Z,18.75
2023-05-01T11:06:43.627Z,18.82
2023-05-01T11:07:43.124Z,19.00
2023-05-01T11:08:44.090Z,19.09
2023-05-01T11:09:43.121Z,18.94
2023-05-01T11:10:43.060Z,18.74
2023-05-01T11:11:42.976Z,18.57
2023-05-01T11:12:43.008Z,18.35
2023-05-01T11:13:43.033Z,17.99
2023-05-01T11:14:42.997Z,17.59
2023-05-01T11:15:42.940Z,17.38
2023-05-01T11:16:43.059Z,17.40
2023-05-01T11:17:43.257Z,17.51
2023-05-01T11:18:42.962Z,17.62
2023-05-01T11:19:42.882Z,17.79
2023-05-01T11:20:42.948Z,18.00
2023-05-01T11:21:42.856Z,18.26
2023-05-01T11:22:42.895Z,18.42
2023-05-01T11:23:42.823Z,18.52
2023-05-01T11:24:42.839Z,18.85
2023-05-01T11:25:42.823Z,19.29
2023-05-01T11:26:42.849Z,19.79
2023-05-01T11:27:42.838Z,20.38
2023-05-01T11:28:42.834Z,20.89
2023-05-01T11:29:42.775Z,21.13
2023-05-01T11:30:42.813Z,21.07
2023-05-01T11:31:42.780Z,20.74
2023-05-01T11:32:42.765Z,20.55
2023-05-01T11:33:42.717Z,20.44
2023-05-01T11:34:42.724Z,20.43
2023-05-01T11:35:42.700Z,20.51
2023-05-01T11:36:42.762Z,20.23
2023-05-01T11:37:43.743Z,19.83
2023-05-01T11:38:42.689Z,19.51
2023-05-01T11:39:42.655Z,19.49
2023-05-01T11:40:42.624Z,19.82
2023-05-01T11:41:42.701Z,20.30
2023-05-01T11:42:42.628Z,20.86
2023-05-01T11:43:42.604Z,21.21
2023-05-01T11:44:42.603Z,20.86
2023-05-01T11:45:42.582Z,20.26
2023-05-01T11:46:42.565Z,19.99
2023-05-01T11:47:42.617Z,20.02
2023-05-01T11:48:42.528Z,20.15
2023-05-01T11:49:42.511Z,20.31
2023-05-01T11:50:42.513Z,20.52
2023-05-01T11:51:42.504Z,20.75
2023-05-01T11:52:42.502Z,20.67
2023-05-01T11:53:42.468Z,20.32
2023-05-01T11:54:42.450Z,20.00
2023-05-01T11:55:42.432Z,19.98
2023-05-01T11:56:42.432Z,20.20
2023-05-01T11:57:42.428Z,20.25
2023-05-01T11:58:42.428Z,20.13
2023-05-01T11:59:42.383Z,20.03
2023-05-01T12:00:42.397Z,20.21
2023-05-01T12:01:42.396Z,20.51
2023-05-01T12:02:42.472Z,20.54
2023-05-01T12:03:42.560Z,20.29
2023-05-01T12:04:42.417Z,20.01
2023-05-01T12:05:42.358Z,19.64
2023-05-01T12:06:42.369Z,19.27
2023-05-01T12:07:42.323Z,19.24
2023-05-01T12:08:42.336Z,19.58
2023-05-01T12:09:42.400Z,19.85
2023-05-01T12:10:42.280Z,20.04
2023-05-01T12:11:42.226Z,20.28
2023-05-01T12:12:44.020Z,20.32
2023-05-01T12:13:42.398Z,20.18
2023-05-01T12:14:42.237Z,20.01
2023-05-01T12:15:42.255Z,19.85
2023-05-01T12:16:42.260Z,19.70
2023-05-01T12:17:42.174Z,19.62
2023-05-01T12:18:42.167Z,19.37
2023-05-01T12:19:42.190Z,19.06
2023-05-01T12:20:42.211Z,18.95
2023-05-01T12:21:42.139Z,18.83
2023-05-01T12:22:42.307Z,18.78
2023-05-01T12:23:42.095Z,18.90
2023-05-01T12:24:42.283Z,19.08
2023-05-01T12:25:42.095Z,19.08
2023-05-01T12:26:42.043Z,18.97
2023-05-01T12:27:42.027Z,18.91
2023-05-01T12:28:42.076Z,18.97
2023-05-01T12:29:42.012Z,19.18
2023-05-01T12:30:41.990Z,19.23
2023-05-01T12:31:41.985Z,19.14
2023-05-01T12:32:42.063Z,19.05
2023-05-01T12:33:41.959Z,19.03
2023-05-01T12:34:42.007Z,19.15
2023-05-01T12:35:42.065Z,19.24
2023-05-01T12:36:41.928Z,19.31
2023-05-01T12:37:42.348Z,19.28
2023-05-01T12:38:45.874Z,19.10
2023-05-01T12:39:41.899Z,19.03
2023-05-01T12:40:41.859Z,19.08
2023-05-01T12:41:41.835Z,19.23
2023-05-01T12:42:41.828Z,19.39
2023-05-01T12:43:44.273Z,19.50
2023-05-01T12:44:41.843Z,19.50
2023-05-01T12:45:41.803Z,19.37
2023-05-01T12:46:41.900Z,19.14
2023-05-01T12:47:41.839Z,18.99
2023-05-01T12:48:41.805Z,19.07
2023-05-01T12:49:41.762Z,19.32
2023-05-01T12:50:41.914Z,19.56
2023-05-01T12:51:41.731Z,19.65
2023-05-01T12:52:41.723Z,19.59
2023-05-01T12:53:41.678Z,19.42
2023-05-01T12:54:41.771Z,19.27
2023-05-01T12:55:41.710Z,19.33
2023-05-01T12:56:41.649Z,19.56
2023-05-01T12:57:41.654Z,19.73
2023-05-01T12:58:41.652Z,19.74
2023-05-01T12:59:41.606Z,19.69
2023-05-01T13:00:41.593Z,19.70
2023-05-01T13:01:41.624Z,19.85
2023-05-01T13:02:41.621Z,19.96
2023-05-01T13:03:41.640Z,19.92
2023-05-01T13:04:41.575Z,19.58
2023-05-01T13:08:16.822Z,20.22
2023-05-01T13:09:17.788Z,19.76